createdAt,value
2023-05-22T00:00:37.469Z,7.60
2023-05-22T00:03:24.678Z,7.30
2023-05-22T00:05:53.691Z,6.50
2023-05-22T00:08:22.274Z,8.30
2023-05-22T00:10:51.063Z,8.70
2023-05-22T00:13:19.758Z,7.20
2023-05-22T00:15:49.153Z,8.70
2023-05-22T00:18:18.108Z,7.10
2023-05-22T00:20:46.836Z,7.50
2023-05-22T00:23:15.812Z,8.90
2023-05-22T00:25:44.520Z,9.60
2023-05-22T00:28:13.712Z,6.60
2023-05-22T00:30:42.483Z,7.40
2023-05-22T00:33:12.738Z,6.90
2023-05-22T00:35:41.519Z,7.30
2023-05-22T00:38:29.496Z,6.60
2023-05-22T00:40:59.581Z,6.70
2023-05-22T00:43:28.937Z,6.90
2023-05-22T00:45:57.847Z,8.70
2023-05-22T00:48:28.405Z,19.70
2023-05-22T00:50:59.451Z,7.50
2023-05-22T00:53:31.174Z,6.90
2023-05-22T00:56:01.185Z,8.90
2023-05-22T00:58:30.011Z,7.60
2023-05-22T01:00:59.290Z,8.30
2023-05-22T01:03:28.821Z,7.60
2023-05-22T01:05:58.083Z,8.60
2023-05-22T01:08:26.807Z,7.60
2023-05-22T01:11:05.587Z,7.90
2023-05-22T01:14:01.228Z,8.40
2023-05-22T01:16:49.825Z,9.10
2023-05-22T01:20:01.746Z,8.30
2023-05-22T01:23:09.204Z,7.80
2023-05-22T01:25:53.353Z,6.60
2023-05-22T01:28:51.328Z,8.20
2023-05-22T01:31:26.061Z,9.70
2023-05-22T01:33:59.085Z,7.20
2023-05-22T01:36:35.282Z,9.40
2023-05-22T01:39:06.854Z,9.30
2023-05-22T01:41:36.470Z,9.60
2023-05-22T01:44:05.356Z,7.20
2023-05-22T01:46:34.151Z,7.90
2023-05-22T01:49:03.038Z,6.90
2023-05-22T01:51:55.213Z,7.00
2023-05-22T01:54:50.696Z,6.50
2023-05-22T01:57:29.209Z,7.00
2023-05-22T02:00:16.533Z,8.90
2023-05-22T02:03:01.841Z,7.70
2023-05-22T02:05:36.051Z,7.60
2023-05-22T02:08:07.205Z,8.20
2023-05-22T02:10:38.178Z,8.50
2023-05-22T02:13:07.407Z,9.90
2023-05-22T02:15:36.353Z,8.10
2023-05-22T02:18:14.088Z,7.30
2023-05-22T02:20:44.130Z,9.00
2023-05-22T02:23:13.018Z,8.60
2023-05-22T02:25:41.758Z,8.00
2023-05-22T02:28:10.490Z,7.90
2023-05-22T02:30:39.641Z,9.10
2023-05-22T02:33:09.708Z,8.80
2023-05-22T02:35:38.395Z,7.80
2023-05-22T02:38:07.386Z,8.50
2023-05-22T02:40:36.076Z,9.20
2023-05-22T02:43:05.070Z,9.40
2023-05-22T02:45:33.863Z,8.90
2023-05-22T02:48:04.041Z,8.70
2023-05-22T02:50:33.789Z,8.50
2023-05-22T02:53:02.390Z,8.50
2023-05-22T02:55:31.164Z,10.20
2023-05-22T02:57:59.950Z,9.50
2023-05-22T03:00:28.844Z,9.30
2023-05-22T03:02:57.692Z,8.30
2023-05-22T03:05:26.831Z,8.00
2023-05-22T03:07:56.334Z,9.00
2023-05-22T03:10:25.225Z,9.50
2023-05-22T03:12:53.814Z,8.80
2023-05-22T03:15:22.703Z,9.50
2023-05-22T03:17:55.450Z,8.90
2023-05-22T03:20:24.274Z,9.00
2023-05-22T03:22:52.973Z,9.80
2023-05-22T03:25:22.366Z,9.50
2023-05-22T03:27:51.159Z,9.50
2023-05-22T03:30:20.257Z,8.30
2023-05-22T03:32:57.898Z,9.60
2023-05-22T03:35:26.965Z,10.20
2023-05-22T03:37:55.946Z,9.10
2023-05-22T03:40:25.352Z,9.50
2023-05-22T03:42:54.347Z,8.10
2023-05-22T03:45:24.566Z,12.70
2023-05-22T03:47:53.373Z,6.90
2023-05-22T03:50:22.141Z,10.00
2023-05-22T03:52:51.035Z,11.90
2023-05-22T03:55:19.614Z,8.20
2023-05-22T03:57:48.607Z,9.00
2023-05-22T04:00:19.817Z,18.30
2023-05-22T04:02:50.838Z,34.80
2023-05-22T04:05:19.652Z,21.30
2023-05-22T04:07:48.381Z,13.60
2023-05-22T04:10:17.266Z,14.50
2023-05-22T04:12:46.364Z,8.30
2023-05-22T04:15:15.863Z,8.70
2023-05-22T04:17:44.497Z,10.10
2023-05-22T04:20:13.857Z,11.00
2023-05-22T04:22:42.449Z,11.30
2023-05-22T04:25:11.455Z,8.70
2023-05-22T04:27:40.529Z,9.00
2023-05-22T04:30:10.793Z,7.90
2023-05-22T04:32:41.342Z,10.50
2023-05-22T04:35:12.551Z,8.60
2023-05-22T04:37:42.655Z,9.40
2023-05-22T04:40:15.416Z,8.10
2023-05-22T04:42:44.946Z,9.90
2023-05-22T04:45:14.340Z,10.70
2023-05-22T04:47:43.054Z,8.60
2023-05-22T04:50:12.435Z,7.40
2023-05-22T04:52:41.328Z,9.40
2023-05-22T04:55:12.468Z,8.90
2023-05-22T04:57:41.568Z,9.30
2023-05-22T05:00:11.214Z,10.00
2023-05-22T05:02:41.603Z,9.00
2023-05-22T05:05:10.905Z,8.80
2023-05-22T05:07:40.623Z,9.90
2023-05-22T05:10:10.734Z,13.80
2023-05-22T05:12:39.522Z,10.50
2023-05-22T05:15:09.437Z,8.70
2023-05-22T05:17:38.798Z,9.20
2023-05-22T05:20:10.674Z,10.10
2023-05-22T05:22:40.211Z,9.40
2023-05-22T05:25:11.476Z,10.80
2023-05-22T05:27:40.959Z,8.90
2023-05-22T05:30:11.181Z,8.30
2023-05-22T05:33:18.269Z,8.60
2023-05-22T05:36:16.858Z,11.50
2023-05-22T05:38:47.084Z,9.90
2023-05-22T05:41:17.306Z,11.20
2023-05-22T05:43:47.325Z,8.30
2023-05-22T05:46:16.029Z,8.70
2023-05-22T05:48:45.215Z,9.70
2023-05-22T05:51:13.850Z,9.40
2023-05-22T05:53:44.322Z,9.80
2023-05-22T05:56:13.321Z,8.10
2023-05-22T05:58:42.315Z,8.00
2023-05-22T06:01:35.930Z,7.80
2023-05-22T06:04:05.886Z,9.70
2023-05-22T06:06:36.722Z,8.10
2023-05-22T06:09:28.160Z,9.30
2023-05-22T06:12:13.543Z,9.10
2023-05-22T06:14:45.514Z,8.90
2023-05-22T06:17:14.908Z,7.80
2023-05-22T06:19:44.517Z,8.20
2023-05-22T06:22:14.127Z,7.10
2023-05-22T06:24:44.361Z,8.30
2023-05-22T06:27:17.031Z,9.60
2023-05-22T06:29:46.024Z,8.10
2023-05-22T06:32:15.445Z,8.60
2023-05-22T06:34:47.405Z,9.20
2023-05-22T06:37:17.301Z,7.40
2023-05-22T06:39:46.302Z,7.60
2023-05-22T06:42:30.041Z,9.00
2023-05-22T06:45:21.883Z,9.40
2023-05-22T06:48:13.304Z,7.80
2023-05-22T06:50:53.635Z,10.40
2023-05-22T06:53:24.181Z,8.20
2023-05-22T06:55:53.379Z,10.20
2023-05-22T06:58:29.963Z,7.80
2023-05-22T07:00:58.787Z,11.60
2023-05-22T07:03:35.828Z,10.60
2023-05-22T07:06:23.453Z,8.00
2023-05-22T07:08:52.242Z,7.60
2023-05-22T07:11:21.335Z,8.80
2023-05-22T07:13:49.926Z,8.60
2023-05-22T07:16:18.644Z,8.90
2023-05-22T07:18:48.442Z,7.30
2023-05-22T07:21:17.345Z,9.00
2023-05-22T07:23:46.626Z,6.30
2023-05-22T07:26:15.308Z,7.40
2023-05-22T07:28:49.899Z,7.70
2023-05-22T07:31:18.590Z,8.60
2023-05-22T07:33:47.835Z,8.40
2023-05-22T07:36:19.372Z,10.80
2023-05-22T07:38:48.159Z,8.10
2023-05-22T07:41:16.841Z,6.60
2023-05-22T07:43:45.529Z,7.00
2023-05-22T07:46:16.602Z,7.70
2023-05-22T07:48:56.010Z,7.70
2023-05-22T07:51:24.701Z,8.90
2023-05-22T07:53:53.910Z,8.90
2023-05-22T07:56:22.480Z,8.30
2023-05-22T07:58:52.272Z,7.80
2023-05-22T08:01:21.798Z,8.80
2023-05-22T08:03:50.677Z,7.80
2023-05-22T08:06:19.526Z,8.30
2023-05-22T08:08:48.280Z,8.40
2023-05-22T08:11:17.051Z,9.40
2023-05-22T08:13:45.847Z,9.50
2023-05-22T08:16:14.514Z,7.60
2023-05-22T08:18:43.115Z,10.00
2023-05-22T08:21:12.009Z,10.90
2023-05-22T08:23:40.802Z,6.50
2023-05-22T08:26:09.869Z,8.90
2023-05-22T08:28:42.380Z,8.60
2023-05-22T08:31:12.319Z,8.40
2023-05-22T08:33:41.391Z,8.60
2023-05-22T08:36:10.085Z,8.50
2023-05-22T08:38:38.962Z,7.60
2023-05-22T08:41:08.959Z,8.80
2023-05-22T08:43:37.561Z,7.50
2023-05-22T08:46:09.143Z,11.10
2023-05-22T08:48:38.624Z,8.60
2023-05-22T08:51:08.549Z,11.30
2023-05-22T08:53:39.174Z,7.50
2023-05-22T08:56:09.153Z,6.90
2023-05-22T08:58:38.805Z,10.00
2023-05-22T09:01:09.183Z,5.50
2023-05-22T09:03:38.948Z,7.50
2023-05-22T09:06:10.568Z,7.50
2023-05-22T09:08:39.599Z,7.90
2023-05-22T09:11:08.439Z,6.20
2023-05-22T09:13:40.307Z,8.70
2023-05-22T09:16:13.620Z,7.10
2023-05-22T09:18:42.893Z,10.20
2023-05-22T09:21:28.988Z,7.60
2023-05-22T09:24:02.072Z,6.80
2023-05-22T09:26:33.194Z,6.30
2023-05-22T09:29:02.264Z,7.30
2023-05-22T09:31:31.047Z,7.20
2023-05-22T09:34:00.177Z,10.60
2023-05-22T09:36:33.988Z,7.20
2023-05-22T09:39:04.609Z,7.30
2023-05-22T09:41:39.569Z,10.70
2023-05-22T09:44:16.529Z,10.00
2023-05-22T09:46:48.011Z,9.00
2023-05-22T09:49:17.730Z,6.70
2023-05-22T09:51:50.039Z,7.50
2023-05-22T09:54:22.006Z,7.10
2023-05-22T09:56:54.177Z,8.00
2023-05-22T09:59:29.603Z,7.40
2023-05-22T10:01:58.929Z,6.60
2023-05-22T10:04:28.570Z,8.30
2023-05-22T10:06:58.383Z,8.80
2023-05-22T10:09:31.464Z,7.10
2023-05-22T10:12:07.542Z,7.00
2023-05-22T10:14:37.408Z,7.80
2023-05-22T10:17:07.255Z,7.40
2023-05-22T10:19:38.755Z,11.30
2023-05-22T10:22:15.162Z,8.50
2023-05-22T10:24:48.453Z,8.00
2023-05-22T10:27:17.329Z,7.00
2023-05-22T10:29:54.695Z,6.60
2023-05-22T10:32:34.645Z,7.00
2023-05-22T10:35:26.086Z,6.80
2023-05-22T10:38:19.252Z,7.10
2023-05-22T10:40:48.752Z,8.10
2023-05-22T10:43:17.632Z,6.40
2023-05-22T10:45:48.409Z,6.80
2023-05-22T10:48:23.387Z,9.10
2023-05-22T10:50:57.598Z,8.50
2023-05-22T10:53:32.282Z,8.10
2023-05-22T10:56:14.067Z,7.00
2023-05-22T10:58:57.390Z,7.40
2023-05-22T11:01:27.431Z,7.70
2023-05-22T11:04:07.208Z,6.40
2023-05-22T11:06:46.304Z,7.90
2023-05-22T11:09:27.163Z,6.50
2023-05-22T11:12:25.036Z,9.10
2023-05-22T11:14:59.551Z,7.20
2023-05-22T11:17:37.039Z,7.50
2023-05-22T11:20:13.473Z,10.00
2023-05-22T11:23:01.257Z,7.30
2023-05-22T11:25:30.659Z,7.60
2023-05-22T11:27:59.969Z,7.70
2023-05-22T11:30:31.089Z,6.30
2023-05-22T11:33:01.708Z,6.40
2023-05-22T11:35:31.980Z,6.90
2023-05-22T11:38:05.149Z,6.70
2023-05-22T11:40:33.854Z,6.70
2023-05-22T11:43:04.368Z,7.30
2023-05-22T11:45:40.175Z,7.80
2023-05-22T11:48:09.365Z,8.60
2023-05-22T11:50:42.447Z,7.10
2023-05-22T11:53:11.710Z,6.20
2023-05-22T11:55:43.375Z,7.40
2023-05-22T11:58:12.262Z,8.20
2023-05-22T12:00:41.487Z,7.70
2023-05-22T12:03:10.538Z,11.00
2023-05-22T12:05:39.434Z,6.40
2023-05-22T12:08:08.226Z,10.30
2023-05-22T12:10:37.386Z,7.30
2023-05-22T12:13:06.519Z,8.40
2023-05-22T12:15:35.203Z,6.70
2023-05-22T12:18:04.127Z,6.60
2023-05-22T12:20:32.926Z,8.90
2023-05-22T12:23:01.779Z,7.90
2023-05-22T12:25:37.436Z,6.40
2023-05-22T12:28:07.657Z,8.80
2023-05-22T12:30:42.976Z,7.00
2023-05-22T12:33:15.422Z,7.70
2023-05-22T12:35:44.051Z,7.80
2023-05-22T12:38:13.876Z,7.00
2023-05-22T12:40:43.098Z,6.50
2023-05-22T12:43:11.962Z,7.40
2023-05-22T12:45:43.716Z,7.90
2023-05-22T12:48:13.474Z,7.50
2023-05-22T12:50:43.508Z,9.10
2023-05-22T12:53:12.436Z,7.00
2023-05-22T12:55:41.947Z,7.90
2023-05-22T12:58:10.837Z,6.90
2023-05-22T13:00:39.788Z,8.30
2023-05-22T13:03:09.689Z,8.70
2023-05-22T13:05:38.516Z,9.30
2023-05-22T13:08:07.326Z,7.00
2023-05-22T13:10:36.335Z,8.90
2023-05-22T13:13:05.110Z,7.00
2023-05-22T13:15:33.796Z,8.40
2023-05-22T13:18:02.938Z,11.30
2023-05-22T13:20:32.295Z,7.50
2023-05-22T13:23:01.281Z,7.00
2023-05-22T13:25:30.083Z,8.90
2023-05-22T13:28:00.805Z,7.10
2023-05-22T13:30:29.600Z,7.80
2023-05-22T13:32:58.550Z,8.00
2023-05-22T13:35:27.791Z,8.40
2023-05-22T13:37:56.589Z,7.20
2023-05-22T13:40:25.374Z,6.80
2023-05-22T13:42:54.366Z,7.30
2023-05-22T13:45:23.278Z,7.40
2023-05-22T13:47:52.283Z,7.50
2023-05-22T13:50:21.564Z,8.40
2023-05-22T13:52:50.527Z,9.10
2023-05-22T13:55:19.676Z,6.80
2023-05-22T13:57:48.870Z,6.70
2023-05-22T14:00:18.814Z,7.60
2023-05-22T14:02:48.382Z,6.10
2023-05-22T14:05:17.772Z,8.90
2023-05-22T14:07:46.999Z,6.30
2023-05-22T14:10:16.485Z,8.40
2023-05-22T14:12:45.285Z,7.40
2023-05-22T14:15:16.543Z,9.30
2023-05-22T14:17:45.461Z,8.60
2023-05-22T14:20:14.708Z,7.70
2023-05-22T14:22:56.550Z,7.80
2023-05-22T14:25:26.940Z,8.80
2023-05-22T14:27:56.032Z,6.60
2023-05-22T14:30:25.125Z,7.80
2023-05-22T14:32:54.108Z,7.50
2023-05-22T14:35:23.105Z,8.00
2023-05-22T14:37:52.049Z,7.00
2023-05-22T14:40:21.812Z,7.60
2023-05-22T14:42:51.903Z,8.50
2023-05-22T14:45:22.909Z,7.50
2023-05-22T14:47:52.006Z,7.30
2023-05-22T14:50:21.115Z,7.70
2023-05-22T14:52:50.167Z,9.40
2023-05-22T14:55:18.877Z,6.60
2023-05-22T14:57:48.152Z,7.60
2023-05-22T15:00:17.877Z,8.90
2023-05-22T15:02:46.628Z,6.70
2023-05-22T15:05:15.938Z,8.40
2023-05-22T15:07:46.719Z,8.20
2023-05-22T15:10:16.710Z,8.40
2023-05-22T15:12:45.419Z,9.30
2023-05-22T15:15:14.316Z,10.50
2023-05-22T15:17:43.262Z,7.90
2023-05-22T15:20:13.747Z,8.00
2023-05-22T15:22:42.703Z,9.40
2023-05-22T15:25:15.588Z,6.60
2023-05-22T15:27:44.802Z,8.00
2023-05-22T15:30:15.315Z,12.50
2023-05-22T15:32:44.653Z,7.30
2023-05-22T15:35:16.640Z,11.80
2023-05-22T15:37:45.373Z,7.40
2023-05-22T15:40:18.764Z,8.70
2023-05-22T15:42:47.464Z,9.30
2023-05-22T15:45:16.460Z,6.80
2023-05-22T15:47:45.419Z,6.60
2023-05-22T15:50:14.237Z,8.80
2023-05-22T15:52:43.629Z,8.30
2023-05-22T15:55:12.320Z,7.60
2023-05-22T15:57:41.116Z,9.30
2023-05-22T16:00:11.416Z,6.60
2023-05-22T16:02:40.447Z,7.70
2023-05-22T16:05:09.837Z,6.30
2023-05-22T16:07:38.518Z,8.00
2023-05-22T16:10:08.298Z,7.50
2023-05-22T16:12:39.896Z,7.00
2023-05-22T16:15:10.029Z,8.40
2023-05-22T16:17:39.449Z,7.70
2023-05-22T16:20:09.433Z,7.60
2023-05-22T16:22:48.211Z,8.70
2023-05-22T16:25:18.594Z,7.60
2023-05-22T16:27:47.474Z,7.40
2023-05-22T16:30:17.470Z,7.10
2023-05-22T16:32:47.598Z,11.20
2023-05-22T16:35:16.866Z,7.90
2023-05-22T16:37:45.908Z,6.20
2023-05-22T16:40:14.903Z,7.80
2023-05-22T16:42:43.688Z,13.00
2023-05-22T16:45:12.600Z,7.60
2023-05-22T16:47:41.594Z,6.50
2023-05-22T16:50:10.383Z,7.70
2023-05-22T16:52:39.054Z,6.20
2023-05-22T16:55:09.069Z,7.30
2023-05-22T16:57:39.263Z,7.00
2023-05-22T17:00:11.224Z,8.20
2023-05-22T17:02:40.698Z,7.00
2023-05-22T17:05:10.172Z,9.80
2023-05-22T17:07:38.855Z,7.20
2023-05-22T17:10:08.514Z,7.60
2023-05-22T17:12:37.461Z,10.00
2023-05-22T17:15:07.322Z,7.80
2023-05-22T17:17:36.120Z,8.30
2023-05-22T17:20:08.276Z,9.30
2023-05-22T17:22:38.726Z,7.80
2023-05-22T17:25:08.838Z,6.60
2023-05-22T17:27:37.669Z,10.00
2023-05-22T17:30:08.301Z,9.10
2023-05-22T17:32:37.180Z,8.90
2023-05-22T17:35:07.187Z,7.00
2023-05-22T17:37:36.057Z,12.30
2023-05-22T17:40:06.744Z,7.30
2023-05-22T17:42:35.725Z,7.90
2023-05-22T17:45:05.533Z,8.80
2023-05-22T17:47:34.158Z,7.80
2023-05-22T17:50:02.929Z,7.70
2023-05-22T17:52:31.916Z,7.50
2023-05-22T17:55:00.594Z,7.80
2023-05-22T17:57:29.597Z,7.60
2023-05-22T17:59:58.535Z,8.80
2023-05-22T18:02:28.578Z,10.20
2023-05-22T18:04:57.288Z,9.30
2023-05-22T18:07:26.379Z,11.10
2023-05-22T18:09:55.192Z,11.90
2023-05-22T18:12:31.264Z,12.90
2023-05-22T18:15:00.760Z,11.00
2023-05-22T18:17:29.650Z,11.30
2023-05-22T18:19:58.412Z,8.60
2023-05-22T18:22:27.108Z,9.40
2023-05-22T18:24:55.788Z,11.60
2023-05-22T18:27:24.887Z,8.20
2023-05-22T18:29:55.740Z,9.50
2023-05-22T18:32:24.820Z,9.80
2023-05-22T18:34:53.709Z,10.70
2023-05-22T18:37:23.108Z,10.40
2023-05-22T18:39:51.902Z,9.40
2023-05-22T18:42:20.795Z,13.20
2023-05-22T18:44:51.017Z,14.80
2023-05-22T18:47:19.601Z,12.60
2023-05-22T18:49:48.900Z,14.30
2023-05-22T18:52:17.594Z,15.80
2023-05-22T18:54:46.374Z,16.30
2023-05-22T18:57:15.268Z,14.20
2023-05-22T18:59:44.160Z,12.10
2023-05-22T19:02:12.955Z,11.20
2023-05-22T19:04:43.665Z,12.70
2023-05-22T19:07:12.886Z,10.50
2023-05-22T19:09:41.782Z,11.00
2023-05-22T19:12:10.978Z,8.20
2023-05-22T19:14:40.281Z,11.40
2023-05-22T19:17:10.405Z,8.80
2023-05-22T19:19:39.720Z,8.80
2023-05-22T19:22:10.463Z,10.70
2023-05-22T19:24:39.433Z,9.60
2023-05-22T19:27:08.425Z,9.50
2023-05-22T19:29:37.725Z,9.10
2023-05-22T19:32:07.036Z,11.70
2023-05-22T19:34:35.728Z,8.80
2023-05-22T19:37:04.910Z,10.90
2023-05-22T19:39:33.805Z,12.00
2023-05-22T19:42:02.798Z,13.30
2023-05-22T19:44:31.489Z,13.90
2023-05-22T19:47:00.789Z,24.10
2023-05-22T19:49:31.932Z,23.50
2023-05-22T19:52:01.132Z,26.40
2023-05-22T19:54:29.729Z,27.50
2023-05-22T19:56:58.403Z,29.50
2023-05-22T19:59:27.503Z,47.70
2023-05-22T20:01:56.467Z,39.60
2023-05-22T20:04:25.183Z,39.20
2023-05-22T20:06:54.478Z,39.40
2023-05-22T20:09:23.064Z,28.10
2023-05-22T20:11:51.753Z,18.40
2023-05-22T20:14:20.440Z,20.00
2023-05-22T20:16:49.255Z,28.50
2023-05-22T20:19:18.452Z,17.60
2023-05-22T20:21:49.742Z,24.00
2023-05-22T20:24:25.366Z,15.20
2023-05-22T20:26:54.325Z,16.80
2023-05-22T20:29:23.002Z,17.30
2023-05-22T20:31:54.942Z,15.50
2023-05-22T20:34:26.877Z,15.40
2023-05-22T20:36:55.623Z,12.40
2023-05-22T20:39:24.508Z,17.10
2023-05-22T20:41:53.402Z,22.40
2023-05-22T20:44:25.222Z,25.00
2023-05-22T20:46:54.458Z,20.50
2023-05-22T20:49:23.146Z,19.60
2023-05-22T20:51:51.946Z,20.00
2023-05-22T20:54:20.826Z,19.50
2023-05-22T20:56:50.442Z,17.90
2023-05-22T20:59:19.016Z,18.20
2023-05-22T21:01:47.810Z,17.30
2023-05-22T21:04:16.500Z,13.70
2023-05-22T21:06:45.386Z,13.10
2023-05-22T21:09:14.286Z,13.10
2023-05-22T21:11:43.071Z,14.40
2023-05-22T21:14:11.859Z,13.00
2023-05-22T21:16:40.670Z,14.90
2023-05-22T21:19:09.473Z,12.70
2023-05-22T21:21:41.979Z,13.20
2023-05-22T21:24:11.327Z,16.30
2023-05-22T21:26:41.138Z,12.80
2023-05-22T21:29:09.725Z,15.70
2023-05-22T21:31:38.430Z,13.00
2023-05-22T21:34:07.095Z,12.10
2023-05-22T21:36:36.787Z,9.70
2023-05-22T21:39:05.384Z,11.80
2023-05-22T21:41:34.098Z,11.40
2023-05-22T21:44:02.975Z,11.50
2023-05-22T21:46:31.885Z,12.60
2023-05-22T21:49:03.335Z,13.00
2023-05-22T21:51:32.792Z,11.60
2023-05-22T21:54:01.827Z,10.30
2023-05-22T21:56:30.384Z,11.70
2023-05-22T21:58:59.074Z,9.40
2023-05-22T22:01:27.887Z,9.90
2023-05-22T22:03:56.596Z,9.80
2023-05-22T22:06:25.339Z,11.90
2023-05-22T22:08:54.025Z,9.10
2023-05-22T22:11:22.920Z,9.40
2023-05-22T22:13:51.908Z,9.70
2023-05-22T22:16:22.350Z,9.60
2023-05-22T22:18:51.461Z,8.40
2023-05-22T22:21:20.336Z,8.50
2023-05-22T22:23:49.020Z,9.40
2023-05-22T22:26:18.213Z,9.30
2023-05-22T22:28:47.003Z,12.20
2023-05-22T22:31:16.092Z,9.70
2023-05-22T22:33:44.789Z,10.60
2023-05-22T22:36:13.781Z,8.50
2023-05-22T22:38:42.372Z,10.70
2023-05-22T22:41:11.466Z,8.60
2023-05-22T22:43:40.253Z,9.10
2023-05-22T22:46:09.357Z,9.60
2023-05-22T22:48:38.036Z,8.40
2023-05-22T22:51:07.006Z,9.90
2023-05-22T22:53:36.839Z,9.10
2023-05-22T22:56:05.534Z,9.70
2023-05-22T22:58:34.535Z,9.50
2023-05-22T23:01:03.219Z,9.40
2023-05-22T23:03:32.108Z,9.70
2023-05-22T23:06:00.702Z,9.30
2023-05-22T23:08:29.272Z,8.40
2023-05-22T23:10:58.226Z,9.80
2023-05-22T23:13:26.809Z,11.90
2023-05-22T23:15:55.656Z,9.50
2023-05-22T23:18:24.373Z,9.20
2023-05-22T23:20:53.319Z,8.80
2023-05-22T23:23:22.109Z,10.50
2023-05-22T23:25:50.908Z,10.30
2023-05-22T23:28:19.694Z,7.80
2023-05-22T23:30:48.374Z,10.40
2023-05-22T23:33:17.060Z,8.20
2023-05-22T23:35:46.264Z,8.60
2023-05-22T23:38:14.845Z,11.50
2023-05-22T23:40:43.632Z,11.70
2023-05-22T23:43:12.320Z,10.10
2023-05-22T23:45:41.479Z,10.20
2023-05-22T23:48:10.338Z,12.30
2023-05-22T23:50:39.095Z,9.50
2023-05-22T23:53:07.889Z,9.30
2023-05-22T23:55:36.575Z,10.00
2023-05-22T23:58:05.363Z,12.40
